sensor_id;sensor_type;location;lat;lon;timestamp;P1;durP1;ratioP1;P2;durP2;ratioP2
71413;SDS011;59226;53.212;5.728;2023-03-19T00:01:55;4.57;;;1.00;;
71413;SDS011;59226;53.212;5.728;2023-03-19T00:04:21;2.38;;;1.00;;
71413;SDS011;59226;53.212;5.728;2023-03-19T00:06:48;2.37;;;0.90;;
71413;SDS011;59226;53.212;5.728;2023-03-19T00:09:13;3.57;;;1.00;;
71413;SDS011;59226;53.212;5.728;2023-03-19T00:11:38;3.13;;;1.43;;
71413;SDS011;59226;53.212;5.728;2023-03-19T00:14:04;1.80;;;0.80;;
71413;SDS011;59226;53.212;5.728;2023-03-19T00:16:29;5.13;;;1.57;;
71413;SDS011;59226;53.212;5.728;2023-03-19T00:18:54;3.37;;;1.03;;
71413;SDS011;59226;53.212;5.728;2023-03-19T00:21:20;7.03;;;1.43;;
71413;SDS011;59226;53.212;5.728;2023-03-19T00:23:45;2.30;;;1.00;;
71413;SDS011;59226;53.212;5.728;2023-03-19T00:26:10;4.70;;;1.10;;
71413;SDS011;59226;53.212;5.728;2023-03-19T00:28:36;3.63;;;0.90;;
71413;SDS011;59226;53.212;5.728;2023-03-19T00:33:33;3.00;;;0.70;;
71413;SDS011;59226;53.212;5.728;2023-03-19T00:35:58;2.50;;;1.07;;
71413;SDS011;59226;53.212;5.728;2023-03-19T00:38:23;2.47;;;0.80;;
71413;SDS011;59226;53.212;5.728;2023-03-19T00:40:49;2.40;;;1.00;;
71413;SDS011;59226;53.212;5.728;2023-03-19T00:43:14;3.80;;;0.90;;
71413;SDS011;59226;53.212;5.728;2023-03-19T00:45:40;1.55;;;0.82;;
71413;SDS011;59226;53.212;5.728;2023-03-19T00:48:05;3.87;;;1.20;;
71413;SDS011;59226;53.212;5.728;2023-03-19T00:50:32;2.20;;;0.93;;
71413;SDS011;59226;53.212;5.728;2023-03-19T00:52:57;2.47;;;0.97;;
71413;SDS011;59226;53.212;5.728;2023-03-19T00:55:22;3.43;;;1.03;;
71413;SDS011;59226;53.212;5.728;2023-03-19T00:57:49;1.20;;;0.55;;
71413;SDS011;59226;53.212;5.728;2023-03-19T01:00:15;4.97;;;1.20;;
71413;SDS011;59226;53.212;5.728;2023-03-19T01:02:41;5.75;;;1.10;;
71413;SDS011;59226;53.212;5.728;2023-03-19T01:05:06;2.60;;;0.97;;
71413;SDS011;59226;53.212;5.728;2023-03-19T01:07:32;3.05;;;1.02;;
71413;SDS011;59226;53.212;5.728;2023-03-19T01:09:57;4.10;;;1.40;;
71413;SDS011;59226;53.212;5.728;2023-03-19T01:12:22;1.87;;;0.77;;
71413;SDS011;59226;53.212;5.728;2023-03-19T01:14:47;3.33;;;1.13;;
71413;SDS011;59226;53.212;5.728;2023-03-19T01:17:13;2.70;;;1.00;;
71413;SDS011;59226;53.212;5.728;2023-03-19T01:19:38;1.57;;;0.60;;
71413;SDS011;59226;53.212;5.728;2023-03-19T01:22:03;4.13;;;1.20;;
71413;SDS011;59226;53.212;5.728;2023-03-19T01:24:29;1.90;;;0.87;;
71413;SDS011;59226;53.212;5.728;2023-03-19T01:26:55;1.42;;;0.60;;
71413;SDS011;59226;53.212;5.728;2023-03-19T01:29:20;5.23;;;0.87;;
71413;SDS011;59226;53.212;5.728;2023-03-19T01:31:45;3.03;;;1.00;;
71413;SDS011;59226;53.212;5.728;2023-03-19T01:34:10;2.63;;;0.80;;
71413;SDS011;59226;53.212;5.728;2023-03-19T01:36:36;2.37;;;0.80;;
71413;SDS011;59226;53.212;5.728;2023-03-19T01:39:02;2.72;;;0.80;;
71413;SDS011;59226;53.212;5.728;2023-03-19T01:41:27;3.33;;;0.90;;
71413;SDS011;59226;53.212;5.728;2023-03-19T01:43:53;2.00;;;0.73;;
71413;SDS011;59226;53.212;5.728;2023-03-19T01:46:28;2.50;;;0.93;;
71413;SDS011;59226;53.212;5.728;2023-03-19T01:48:56;2.03;;;0.90;;
71413;SDS011;59226;53.212;5.728;2023-03-19T01:51:24;2.67;;;1.00;;
71413;SDS011;59226;53.212;5.728;2023-03-19T01:53:52;2.65;;;0.77;;
71413;SDS011;59226;53.212;5.728;2023-03-19T01:56:21;3.22;;;1.08;;
71413;SDS011;59226;53.212;5.728;2023-03-19T01:58:48;3.40;;;1.00;;
71413;SDS011;59226;53.212;5.728;2023-03-19T02:01:15;2.88;;;1.02;;
71413;SDS011;59226;53.212;5.728;2023-03-19T02:03:40;3.33;;;1.57;;
71413;SDS011;59226;53.212;5.728;2023-03-19T02:06:06;3.15;;;1.35;;
71413;SDS011;59226;53.212;5.728;2023-03-19T02:08:33;3.08;;;1.05;;
71413;SDS011;59226;53.212;5.728;2023-03-19T02:10:59;4.40;;;1.50;;
71413;SDS011;59226;53.212;5.728;2023-03-19T02:13:26;4.73;;;1.57;;
71413;SDS011;59226;53.212;5.728;2023-03-19T02:15:51;6.75;;;2.10;;
71413;SDS011;59226;53.212;5.728;2023-03-19T02:18:17;5.37;;;1.80;;
71413;SDS011;59226;53.212;5.728;2023-03-19T02:23:31;4.57;;;1.63;;
71413;SDS011;59226;53.212;5.728;2023-03-19T02:26:02;4.13;;;1.60;;
71413;SDS011;59226;53.212;5.728;2023-03-19T02:28:28;4.47;;;1.60;;
71413;SDS011;59226;53.212;5.728;2023-03-19T02:30:54;7.00;;;2.30;;
71413;SDS011;59226;53.212;5.728;2023-03-19T02:33:19;3.77;;;1.10;;
71413;SDS011;59226;53.212;5.728;2023-03-19T02:35:46;6.53;;;2.37;;
71413;SDS011;59226;53.212;5.728;2023-03-19T02:38:12;7.50;;;2.63;;
71413;SDS011;59226;53.212;5.728;2023-03-19T02:40:39;3.80;;;1.77;;
71413;SDS011;59226;53.212;5.728;2023-03-19T02:43:05;6.25;;;2.10;;
71413;SDS011;59226;53.212;5.728;2023-03-19T02:45:30;8.30;;;2.73;;
71413;SDS011;59226;53.212;5.728;2023-03-19T02:47:56;5.40;;;2.53;;
71413;SDS011;59226;53.212;5.728;2023-03-19T02:50:21;5.90;;;2.73;;
71413;SDS011;59226;53.212;5.728;2023-03-19T02:52:46;5.43;;;2.17;;
71413;SDS011;59226;53.212;5.728;2023-03-19T02:55:12;5.77;;;2.60;;
71413;SDS011;59226;53.212;5.728;2023-03-19T02:57:37;6.67;;;3.40;;
71413;SDS011;59226;53.212;5.728;2023-03-19T03:00:03;6.33;;;2.90;;
71413;SDS011;59226;53.212;5.728;2023-03-19T03:02:29;7.70;;;2.58;;
71413;SDS011;59226;53.212;5.728;2023-03-19T03:04:55;5.97;;;2.60;;
71413;SDS011;59226;53.212;5.728;2023-03-19T03:07:20;8.03;;;2.93;;
71413;SDS011;59226;53.212;5.728;2023-03-19T03:09:46;7.93;;;3.73;;
71413;SDS011;59226;53.212;5.728;2023-03-19T03:12:11;8.00;;;3.27;;
71413;SDS011;59226;53.212;5.728;2023-03-19T03:14:36;5.80;;;2.90;;
71413;SDS011;59226;53.212;5.728;2023-03-19T03:17:02;5.73;;;2.73;;
71413;SDS011;59226;53.212;5.728;2023-03-19T03:19:27;7.50;;;3.17;;
71413;SDS011;59226;53.212;5.728;2023-03-19T03:21:52;5.87;;;2.77;;
71413;SDS011;59226;53.212;5.728;2023-03-19T03:24:17;6.83;;;3.10;;
71413;SDS011;59226;53.212;5.728;2023-03-19T03:26:43;4.77;;;2.30;;
71413;SDS011;59226;53.212;5.728;2023-03-19T03:29:08;7.50;;;3.27;;
71413;SDS011;59226;53.212;5.728;2023-03-19T03:31:33;5.75;;;2.67;;
71413;SDS011;59226;53.212;5.728;2023-03-19T03:33:59;7.67;;;2.60;;
71413;SDS011;59226;53.212;5.728;2023-03-19T03:36:24;6.80;;;2.60;;
71413;SDS011;59226;53.212;5.728;2023-03-19T03:38:51;9.43;;;3.80;;
71413;SDS011;59226;53.212;5.728;2023-03-19T03:41:16;6.77;;;2.67;;
71413;SDS011;59226;53.212;5.728;2023-03-19T03:43:41;7.33;;;2.53;;
71413;SDS011;59226;53.212;5.728;2023-03-19T03:46:07;8.43;;;3.23;;
71413;SDS011;59226;53.212;5.728;2023-03-19T03:48:33;9.60;;;3.90;;
71413;SDS011;59226;53.212;5.728;2023-03-19T03:50:58;6.78;;;2.90;;
71413;SDS011;59226;53.212;5.728;2023-03-19T03:53:23;8.60;;;3.33;;
71413;SDS011;59226;53.212;5.728;2023-03-19T03:55:48;8.63;;;3.37;;
71413;SDS011;59226;53.212;5.728;2023-03-19T03:58:14;6.80;;;3.77;;
71413;SDS011;59226;53.212;5.728;2023-03-19T04:00:39;10.23;;;3.43;;
71413;SDS011;59226;53.212;5.728;2023-03-19T04:03:04;6.67;;;3.20;;
71413;SDS011;59226;53.212;5.728;2023-03-19T04:05:29;7.53;;;2.93;;
71413;SDS011;59226;53.212;5.728;2023-03-19T04:07:55;8.37;;;3.13;;
71413;SDS011;59226;53.212;5.728;2023-03-19T04:10:21;8.13;;;3.40;;
71413;SDS011;59226;53.212;5.728;2023-03-19T04:12:46;10.03;;;4.07;;
71413;SDS011;59226;53.212;5.728;2023-03-19T04:15:12;9.00;;;3.87;;
71413;SDS011;59226;53.212;5.728;2023-03-19T04:17:37;7.97;;;3.33;;
71413;SDS011;59226;53.212;5.728;2023-03-19T04:20:04;10.03;;;3.33;;
71413;SDS011;59226;53.212;5.728;2023-03-19T04:22:30;7.70;;;3.70;;
71413;SDS011;59226;53.212;5.728;2023-03-19T04:24:55;9.00;;;3.23;;
71413;SDS011;59226;53.212;5.728;2023-03-19T04:27:21;5.53;;;2.77;;
71413;SDS011;59226;53.212;5.728;2023-03-19T04:29:46;6.93;;;2.73;;
71413;SDS011;59226;53.212;5.728;2023-03-19T04:32:11;6.97;;;3.13;;
71413;SDS011;59226;53.212;5.728;2023-03-19T04:34:36;7.60;;;2.83;;
71413;SDS011;59226;53.212;5.728;2023-03-19T04:37:02;8.47;;;3.37;;
71413;SDS011;59226;53.212;5.728;2023-03-19T04:39:27;7.93;;;2.60;;
71413;SDS011;59226;53.212;5.728;2023-03-19T04:41:52;9.30;;;3.67;;
71413;SDS011;59226;53.212;5.728;2023-03-19T04:44:18;7.17;;;3.73;;
71413;SDS011;59226;53.212;5.728;2023-03-19T04:46:43;7.73;;;4.07;;
71413;SDS011;59226;53.212;5.728;2023-03-19T04:49:11;8.35;;;3.75;;
71413;SDS011;59226;53.212;5.728;2023-03-19T04:51:37;7.47;;;3.07;;
71413;SDS011;59226;53.212;5.728;2023-03-19T04:54:02;6.30;;;2.83;;
71413;SDS011;59226;53.212;5.728;2023-03-19T04:56:29;8.10;;;4.22;;
71413;SDS011;59226;53.212;5.728;2023-03-19T04:58:54;9.17;;;4.30;;
71413;SDS011;59226;53.212;5.728;2023-03-19T05:01:19;7.10;;;3.07;;
71413;SDS011;59226;53.212;5.728;2023-03-19T05:03:45;8.13;;;3.10;;
71413;SDS011;59226;53.212;5.728;2023-03-19T05:06:10;8.90;;;4.00;;
71413;SDS011;59226;53.212;5.728;2023-03-19T05:08:35;5.27;;;2.20;;
71413;SDS011;59226;53.212;5.728;2023-03-19T05:11:01;8.57;;;3.80;;
71413;SDS011;59226;53.212;5.728;2023-03-19T05:13:26;8.10;;;3.23;;
71413;SDS011;59226;53.212;5.728;2023-03-19T05:15:51;6.07;;;2.90;;
71413;SDS011;59226;53.212;5.728;2023-03-19T05:18:17;8.68;;;3.60;;
71413;SDS011;59226;53.212;5.728;2023-03-19T05:20:42;7.07;;;2.27;;
71413;SDS011;59226;53.212;5.728;2023-03-19T05:23:08;8.10;;;3.60;;
71413;SDS011;59226;53.212;5.728;2023-03-19T05:25:33;6.97;;;2.80;;
71413;SDS011;59226;53.212;5.728;2023-03-19T05:28:02;8.77;;;3.58;;
71413;SDS011;59226;53.212;5.728;2023-03-19T05:30:27;6.28;;;3.30;;
71413;SDS011;59226;53.212;5.728;2023-03-19T05:32:54;9.93;;;3.47;;
71413;SDS011;59226;53.212;5.728;2023-03-19T05:35:20;9.13;;;3.65;;
71413;SDS011;59226;53.212;5.728;2023-03-19T05:37:45;7.77;;;3.57;;
71413;SDS011;59226;53.212;5.728;2023-03-19T05:40:10;8.23;;;3.37;;
71413;SDS011;59226;53.212;5.728;2023-03-19T05:42:36;10.33;;;3.73;;
71413;SDS011;59226;53.212;5.728;2023-03-19T05:45:02;7.93;;;3.37;;
71413;SDS011;59226;53.212;5.728;2023-03-19T05:47:28;10.82;;;4.18;;
71413;SDS011;59226;53.212;5.728;2023-03-19T05:49:53;7.33;;;3.37;;
71413;SDS011;59226;53.212;5.728;2023-03-19T05:52:18;7.80;;;3.43;;
71413;SDS011;59226;53.212;5.728;2023-03-19T05:54:44;8.03;;;3.27;;
71413;SDS011;59226;53.212;5.728;2023-03-19T05:57:13;8.20;;;3.38;;
71413;SDS011;59226;53.212;5.728;2023-03-19T05:59:38;7.47;;;3.97;;
71413;SDS011;59226;53.212;5.728;2023-03-19T06:02:03;7.17;;;3.10;;
71413;SDS011;59226;53.212;5.728;2023-03-19T06:04:28;9.47;;;3.77;;
71413;SDS011;59226;53.212;5.728;2023-03-19T06:06:54;8.73;;;3.97;;
71413;SDS011;59226;53.212;5.728;2023-03-19T06:09:19;10.77;;;4.77;;
71413;SDS011;59226;53.212;5.728;2023-03-19T06:11:44;11.30;;;5.70;;
71413;SDS011;59226;53.212;5.728;2023-03-19T06:14:10;9.00;;;4.63;;
71413;SDS011;59226;53.212;5.728;2023-03-19T06:16:35;9.97;;;4.27;;
71413;SDS011;59226;53.212;5.728;2023-03-19T06:19:01;7.80;;;3.03;;
71413;SDS011;59226;53.212;5.728;2023-03-19T06:21:26;7.37;;;2.70;;
71413;SDS011;59226;53.212;5.728;2023-03-19T06:23:56;7.45;;;3.22;;
71413;SDS011;59226;53.212;5.728;2023-03-19T06:26:22;8.23;;;3.83;;
71413;SDS011;59226;53.212;5.728;2023-03-19T06:28:47;8.33;;;3.93;;
71413;SDS011;59226;53.212;5.728;2023-03-19T06:31:12;6.70;;;3.10;;
71413;SDS011;59226;53.212;5.728;2023-03-19T06:33:38;5.80;;;2.67;;
71413;SDS011;59226;53.212;5.728;2023-03-19T06:36:03;8.30;;;2.83;;
71413;SDS011;59226;53.212;5.728;2023-03-19T06:38:28;9.52;;;3.17;;
71413;SDS011;59226;53.212;5.728;2023-03-19T06:40:54;8.77;;;3.07;;
71413;SDS011;59226;53.212;5.728;2023-03-19T06:43:19;8.93;;;3.00;;
71413;SDS011;59226;53.212;5.728;2023-03-19T06:45:44;10.63;;;3.60;;
71413;SDS011;59226;53.212;5.728;2023-03-19T06:48:11;6.57;;;2.65;;
71413;SDS011;59226;53.212;5.728;2023-03-19T06:50:36;5.40;;;2.40;;
71413;SDS011;59226;53.212;5.728;2023-03-19T06:53:01;9.03;;;3.53;;
71413;SDS011;59226;53.212;5.728;2023-03-19T06:55:26;10.33;;;4.00;;
71413;SDS011;59226;53.212;5.728;2023-03-19T06:57:52;8.87;;;4.03;;
71413;SDS011;59226;53.212;5.728;2023-03-19T07:00:17;8.23;;;3.30;;
71413;SDS011;59226;53.212;5.728;2023-03-19T07:02:43;6.50;;;3.88;;
71413;SDS011;59226;53.212;5.728;2023-03-19T07:05:08;7.57;;;3.10;;
71413;SDS011;59226;53.212;5.728;2023-03-19T07:07:34;8.07;;;3.20;;
71413;SDS011;59226;53.212;5.728;2023-03-19T07:09:59;12.80;;;3.90;;
71413;SDS011;59226;53.212;5.728;2023-03-19T07:12:25;6.20;;;2.53;;
71413;SDS011;59226;53.212;5.728;2023-03-19T07:14:52;8.55;;;4.63;;
71413;SDS011;59226;53.212;5.728;2023-03-19T07:17:18;8.57;;;3.63;;
71413;SDS011;59226;53.212;5.728;2023-03-19T07:19:43;8.57;;;4.50;;
71413;SDS011;59226;53.212;5.728;2023-03-19T07:22:08;11.73;;;4.90;;
71413;SDS011;59226;53.212;5.728;2023-03-19T07:24:33;12.90;;;3.90;;
71413;SDS011;59226;53.212;5.728;2023-03-19T07:26:59;14.50;;;4.93;;
71413;SDS011;59226;53.212;5.728;2023-03-19T07:29:24;12.20;;;4.53;;
71413;SDS011;59226;53.212;5.728;2023-03-19T07:31:50;23.30;;;5.67;;
71413;SDS011;59226;53.212;5.728;2023-03-19T07:34:15;13.68;;;5.15;;
71413;SDS011;59226;53.212;5.728;2023-03-19T07:36:40;13.90;;;5.80;;
71413;SDS011;59226;53.212;5.728;2023-03-19T07:39:06;14.30;;;6.27;;
71413;SDS011;59226;53.212;5.728;2023-03-19T07:41:31;9.00;;;3.63;;
71413;SDS011;59226;53.212;5.728;2023-03-19T07:43:56;15.70;;;5.27;;
71413;SDS011;59226;53.212;5.728;2023-03-19T07:46:21;11.87;;;4.37;;
71413;SDS011;59226;53.212;5.728;2023-03-19T07:48:47;14.40;;;5.20;;
71413;SDS011;59226;53.212;5.728;2023-03-19T07:51:12;17.47;;;6.33;;
71413;SDS011;59226;53.212;5.728;2023-03-19T07:53:37;12.87;;;6.30;;
71413;SDS011;59226;53.212;5.728;2023-03-19T07:56:02;12.47;;;4.40;;
71413;SDS011;59226;53.212;5.728;2023-03-19T07:58:28;14.33;;;5.00;;
71413;SDS011;59226;53.212;5.728;2023-03-19T08:00:53;12.57;;;4.83;;
71413;SDS011;59226;53.212;5.728;2023-03-19T08:03:18;16.23;;;5.43;;
71413;SDS011;59226;53.212;5.728;2023-03-19T08:05:43;13.17;;;6.23;;
71413;SDS011;59226;53.212;5.728;2023-03-19T08:08:09;11.70;;;5.67;;
71413;SDS011;59226;53.212;5.728;2023-03-19T08:10:34;19.87;;;6.80;;
71413;SDS011;59226;53.212;5.728;2023-03-19T08:12:59;13.50;;;4.50;;
71413;SDS011;59226;53.212;5.728;2023-03-19T08:15:25;12.67;;;4.30;;
71413;SDS011;59226;53.212;5.728;2023-03-19T08:17:57;18.42;;;5.82;;
71413;SDS011;59226;53.212;5.728;2023-03-19T08:20:23;14.83;;;5.30;;
71413;SDS011;59226;53.212;5.728;2023-03-19T08:22:48;14.90;;;5.73;;
71413;SDS011;59226;53.212;5.728;2023-03-19T08:25:14;14.73;;;4.82;;
71413;SDS011;59226;53.212;5.728;2023-03-19T08:27:39;17.13;;;5.37;;
71413;SDS011;59226;53.212;5.728;2023-03-19T08:30:06;23.77;;;6.18;;
71413;SDS011;59226;53.212;5.728;2023-03-19T08:32:32;16.45;;;5.78;;
71413;SDS011;59226;53.212;5.728;2023-03-19T08:34:57;11.77;;;5.03;;
71413;SDS011;59226;53.212;5.728;2023-03-19T08:37:22;14.83;;;5.93;;
71413;SDS011;59226;53.212;5.728;2023-03-19T08:39:50;9.00;;;3.43;;
71413;SDS011;59226;53.212;5.728;2023-03-19T08:42:16;13.98;;;5.68;;
71413;SDS011;59226;53.212;5.728;2023-03-19T08:44:41;15.53;;;5.73;;
71413;SDS011;59226;53.212;5.728;2023-03-19T08:47:07;14.47;;;4.20;;
71413;SDS011;59226;53.212;5.728;2023-03-19T08:49:32;14.77;;;4.23;;
71413;SDS011;59226;53.212;5.728;2023-03-19T08:51:57;13.93;;;4.33;;
71413;SDS011;59226;53.212;5.728;2023-03-19T08:54:22;14.23;;;5.13;;
71413;SDS011;59226;53.212;5.728;2023-03-19T08:56:48;14.60;;;4.70;;
71413;SDS011;59226;53.212;5.728;2023-03-19T08:59:13;13.77;;;4.60;;
71413;SDS011;59226;53.212;5.728;2023-03-19T09:01:38;9.87;;;2.87;;
71413;SDS011;59226;53.212;5.728;2023-03-19T09:04:03;12.80;;;4.13;;
71413;SDS011;59226;53.212;5.728;2023-03-19T09:06:29;9.40;;;2.40;;
71413;SDS011;59226;53.212;5.728;2023-03-19T09:08:54;10.77;;;3.27;;
71413;SDS011;59226;53.212;5.728;2023-03-19T09:11:20;12.40;;;4.63;;
71413;SDS011;59226;53.212;5.728;2023-03-19T09:13:45;10.50;;;4.00;;
71413;SDS011;59226;53.212;5.728;2023-03-19T09:16:10;19.17;;;4.50;;
71413;SDS011;59226;53.212;5.728;2023-03-19T09:18:35;11.53;;;4.83;;
71413;SDS011;59226;53.212;5.728;2023-03-19T09:21:01;6.70;;;2.47;;
71413;SDS011;59226;53.212;5.728;2023-03-19T09:23:26;10.07;;;2.47;;
71413;SDS011;59226;53.212;5.728;2023-03-19T09:25:52;5.78;;;3.10;;
71413;SDS011;59226;53.212;5.728;2023-03-19T09:28:17;8.00;;;3.30;;
71413;SDS011;59226;53.212;5.728;2023-03-19T09:30:46;8.00;;;3.27;;
71413;SDS011;59226;53.212;5.728;2023-03-19T09:33:12;8.45;;;3.72;;
71413;SDS011;59226;53.212;5.728;2023-03-19T09:35:37;11.67;;;3.73;;
71413;SDS011;59226;53.212;5.728;2023-03-19T09:38:03;12.13;;;4.35;;
71413;SDS011;59226;53.212;5.728;2023-03-19T09:40:36;11.37;;;3.73;;
71413;SDS011;59226;53.212;5.728;2023-03-19T09:45:46;9.00;;;2.97;;
71413;SDS011;59226;53.212;5.728;2023-03-19T09:48:14;8.57;;;2.93;;
71413;SDS011;59226;53.212;5.728;2023-03-19T09:50:42;5.13;;;2.05;;
71413;SDS011;59226;53.212;5.728;2023-03-19T09:53:52;7.07;;;2.43;;
71413;SDS011;59226;53.212;5.728;2023-03-19T09:55:53;6.03;;;1.52;;
71413;SDS011;59226;53.212;5.728;2023-03-19T09:58:22;5.63;;;1.83;;
71413;SDS011;59226;53.212;5.728;2023-03-19T10:00:50;4.37;;;1.73;;
71413;SDS011;59226;53.212;5.728;2023-03-19T10:03:59;8.88;;;2.42;;
71413;SDS011;59226;53.212;5.728;2023-03-19T10:16:21;8.13;;;2.10;;
71413;SDS011;59226;53.212;5.728;2023-03-19T10:18:47;6.23;;;1.70;;
71413;SDS011;59226;53.212;5.728;2023-03-19T10:21:24;6.93;;;2.72;;
71413;SDS011;59226;53.212;5.728;2023-03-19T10:23:56;10.80;;;2.85;;
71413;SDS011;59226;53.212;5.728;2023-03-19T10:26:25;5.72;;;2.60;;
71413;SDS011;59226;53.212;5.728;2023-03-19T10:29:03;8.18;;;2.45;;
71413;SDS011;59226;53.212;5.728;2023-03-19T10:31:36;8.90;;;3.60;;
71413;SDS011;59226;53.212;5.728;2023-03-19T10:36:30;8.93;;;2.83;;
71413;SDS011;59226;53.212;5.728;2023-03-19T10:38:57;6.78;;;2.45;;
71413;SDS011;59226;53.212;5.728;2023-03-19T10:43:55;7.60;;;2.60;;
71413;SDS011;59226;53.212;5.728;2023-03-19T10:46:22;6.82;;;2.53;;
71413;SDS011;59226;53.212;5.728;2023-03-19T10:48:48;7.93;;;2.67;;
71413;SDS011;59226;53.212;5.728;2023-03-19T10:51:14;5.67;;;2.20;;
71413;SDS011;59226;53.212;5.728;2023-03-19T10:53:40;6.65;;;2.65;;
71413;SDS011;59226;53.212;5.728;2023-03-19T10:56:06;6.60;;;2.30;;
71413;SDS011;59226;53.212;5.728;2023-03-19T10:58:32;5.03;;;2.28;;
71413;SDS011;59226;53.212;5.728;2023-03-19T11:01:06;6.60;;;2.65;;
71413;SDS011;59226;53.212;5.728;2023-03-19T11:03:33;6.27;;;1.80;;
71413;SDS011;59226;53.212;5.728;2023-03-19T11:06:42;7.72;;;2.35;;
71413;SDS011;59226;53.212;5.728;2023-03-19T11:08:53;6.20;;;2.08;;
71413;SDS011;59226;53.212;5.728;2023-03-19T11:11:23;7.13;;;1.92;;
71413;SDS011;59226;53.212;5.728;2023-03-19T11:13:50;8.07;;;2.78;;
71413;SDS011;59226;53.212;5.728;2023-03-19T11:16:15;8.30;;;2.43;;
71413;SDS011;59226;53.212;5.728;2023-03-19T11:18:40;8.23;;;2.20;;
71413;SDS011;59226;53.212;5.728;2023-03-19T11:21:07;5.93;;;2.03;;
71413;SDS011;59226;53.212;5.728;2023-03-19T11:23:38;8.15;;;2.72;;
71413;SDS011;59226;53.212;5.728;2023-03-19T11:26:04;9.85;;;3.22;;
71413;SDS011;59226;53.212;5.728;2023-03-19T11:28:29;8.20;;;2.57;;
71413;SDS011;59226;53.212;5.728;2023-03-19T11:30:59;7.97;;;2.78;;
71413;SDS011;59226;53.212;5.728;2023-03-19T11:33:31;6.00;;;1.70;;
71413;SDS011;59226;53.212;5.728;2023-03-19T11:36:12;8.80;;;1.88;;
71413;SDS011;59226;53.212;5.728;2023-03-19T11:41:30;6.78;;;2.83;;
71413;SDS011;59226;53.212;5.728;2023-03-19T11:44:00;6.25;;;2.03;;
71413;SDS011;59226;53.212;5.728;2023-03-19T11:56:21;10.37;;;3.80;;
71413;SDS011;59226;53.212;5.728;2023-03-19T12:06:27;8.63;;;4.10;;
71413;SDS011;59226;53.212;5.728;2023-03-19T12:11:46;9.23;;;3.53;;
71413;SDS011;59226;53.212;5.728;2023-03-19T12:14:19;12.32;;;4.38;;
71413;SDS011;59226;53.212;5.728;2023-03-19T12:17:06;15.10;;;4.70;;
71413;SDS011;59226;53.212;5.728;2023-03-19T12:22:04;12.02;;;3.75;;
71413;SDS011;59226;53.212;5.728;2023-03-19T12:29:44;9.70;;;4.07;;
71413;SDS011;59226;53.212;5.728;2023-03-19T12:34:51;10.55;;;3.80;;
71413;SDS011;59226;53.212;5.728;2023-03-19T12:38:19;12.60;;;4.55;;
71413;SDS011;59226;53.212;5.728;2023-03-19T12:42:54;14.03;;;4.73;;
71413;SDS011;59226;53.212;5.728;2023-03-19T12:45:34;16.05;;;5.15;;
71413;SDS011;59226;53.212;5.728;2023-03-19T12:48:08;13.95;;;4.78;;
71413;SDS011;59226;53.212;5.728;2023-03-19T12:50:36;15.18;;;4.55;;
71413;SDS011;59226;53.212;5.728;2023-03-19T12:53:02;12.27;;;5.53;;
71413;SDS011;59226;53.212;5.728;2023-03-19T12:55:39;14.57;;;4.87;;
71413;SDS011;59226;53.212;5.728;2023-03-19T12:58:08;10.65;;;4.55;;
71413;SDS011;59226;53.212;5.728;2023-03-19T13:00:48;9.57;;;4.35;;
71413;SDS011;59226;53.212;5.728;2023-03-19T13:03:21;12.93;;;5.25;;
71413;SDS011;59226;53.212;5.728;2023-03-19T13:11:02;10.07;;;4.05;;
71413;SDS011;59226;53.212;5.728;2023-03-19T13:13:38;13.57;;;5.25;;
71413;SDS011;59226;53.212;5.728;2023-03-19T13:16:29;15.05;;;5.18;;
71413;SDS011;59226;53.212;5.728;2023-03-19T13:18:57;15.40;;;5.28;;
71413;SDS011;59226;53.212;5.728;2023-03-19T13:21:29;11.53;;;4.33;;
71413;SDS011;59226;53.212;5.728;2023-03-19T13:26:26;10.13;;;3.58;;
71413;SDS011;59226;53.212;5.728;2023-03-19T13:28:57;10.53;;;4.23;;
71413;SDS011;59226;53.212;5.728;2023-03-19T13:31:24;9.90;;;4.05;;
71413;SDS011;59226;53.212;5.728;2023-03-19T13:33:50;10.02;;;3.08;;
71413;SDS011;59226;53.212;5.728;2023-03-19T13:36:17;15.23;;;5.40;;
71413;SDS011;59226;53.212;5.728;2023-03-19T13:38:46;13.63;;;6.20;;
71413;SDS011;59226;53.212;5.728;2023-03-19T13:43:56;13.30;;;5.53;;
71413;SDS011;59226;53.212;5.728;2023-03-19T13:48:51;12.20;;;5.37;;
71413;SDS011;59226;53.212;5.728;2023-03-19T13:56:10;11.60;;;5.07;;
71413;SDS011;59226;53.212;5.728;2023-03-19T14:03:56;9.83;;;4.10;;
71413;SDS011;59226;53.212;5.728;2023-03-19T14:11:50;9.68;;;4.00;;
71413;SDS011;59226;53.212;5.728;2023-03-19T14:14:15;4.77;;;2.77;;
71413;SDS011;59226;53.212;5.728;2023-03-19T14:16:41;15.57;;;3.40;;
71413;SDS011;59226;53.212;5.728;2023-03-19T14:19:11;13.95;;;4.50;;
71413;SDS011;59226;53.212;5.728;2023-03-19T14:22:00;12.68;;;4.32;;
71413;SDS011;59226;53.212;5.728;2023-03-19T14:27:00;13.93;;;5.27;;
71413;SDS011;59226;53.212;5.728;2023-03-19T14:29:26;16.92;;;6.80;;
71413;SDS011;59226;53.212;5.728;2023-03-19T14:31:56;21.20;;;5.33;;
71413;SDS011;59226;53.212;5.728;2023-03-19T14:37:37;14.52;;;5.25;;
71413;SDS011;59226;53.212;5.728;2023-03-19T14:39:40;13.00;;;4.25;;
71413;SDS011;59226;53.212;5.728;2023-03-19T14:42:07;13.83;;;4.50;;
71413;SDS011;59226;53.212;5.728;2023-03-19T14:55:22;7.53;;;3.50;;
71413;SDS011;59226;53.212;5.728;2023-03-19T14:57:56;14.30;;;4.57;;
71413;SDS011;59226;53.212;5.728;2023-03-19T15:00:24;9.68;;;2.67;;
71413;SDS011;59226;53.212;5.728;2023-03-19T15:02:49;8.17;;;3.10;;
71413;SDS011;59226;53.212;5.728;2023-03-19T15:07:42;8.03;;;3.00;;
71413;SDS011;59226;53.212;5.728;2023-03-19T15:10:12;14.60;;;3.95;;
71413;SDS011;59226;53.212;5.728;2023-03-19T15:12:48;6.30;;;2.53;;
71413;SDS011;59226;53.212;5.728;2023-03-19T15:17:59;5.80;;;2.70;;
71413;SDS011;59226;53.212;5.728;2023-03-19T15:20:25;10.13;;;2.70;;
71413;SDS011;59226;53.212;5.728;2023-03-19T15:23:00;6.67;;;2.67;;
71413;SDS011;59226;53.212;5.728;2023-03-19T15:25:28;6.50;;;1.75;;
71413;SDS011;59226;53.212;5.728;2023-03-19T15:28:03;6.03;;;2.33;;
71413;SDS011;59226;53.212;5.728;2023-03-19T15:30:28;6.57;;;2.90;;
71413;SDS011;59226;53.212;5.728;2023-03-19T15:32:54;12.47;;;3.47;;
71413;SDS011;59226;53.212;5.728;2023-03-19T15:35:20;9.77;;;3.00;;
71413;SDS011;59226;53.212;5.728;2023-03-19T15:37:48;10.80;;;3.47;;
71413;SDS011;59226;53.212;5.728;2023-03-19T15:40:15;12.30;;;2.85;;
71413;SDS011;59226;53.212;5.728;2023-03-19T15:42:42;9.52;;;3.05;;
71413;SDS011;59226;53.212;5.728;2023-03-19T15:45:10;10.47;;;3.37;;
71413;SDS011;59226;53.212;5.728;2023-03-19T15:47:41;8.73;;;3.00;;
71413;SDS011;59226;53.212;5.728;2023-03-19T15:50:13;8.45;;;2.55;;
71413;SDS011;59226;53.212;5.728;2023-03-19T15:52:40;11.50;;;3.75;;
71413;SDS011;59226;53.212;5.728;2023-03-19T15:55:06;12.88;;;3.08;;
71413;SDS011;59226;53.212;5.728;2023-03-19T15:57:33;14.53;;;3.97;;
71413;SDS011;59226;53.212;5.728;2023-03-19T16:00:00;8.63;;;2.03;;
71413;SDS011;59226;53.212;5.728;2023-03-19T16:02:29;17.88;;;5.55;;
71413;SDS011;59226;53.212;5.728;2023-03-19T16:04:55;14.60;;;4.70;;
71413;SDS011;59226;53.212;5.728;2023-03-19T16:07:42;17.27;;;5.00;;
71413;SDS011;59226;53.212;5.728;2023-03-19T16:12:50;14.03;;;3.63;;
71413;SDS011;59226;53.212;5.728;2023-03-19T16:17:47;11.52;;;3.13;;
71413;SDS011;59226;53.212;5.728;2023-03-19T16:20:15;16.25;;;4.65;;
71413;SDS011;59226;53.212;5.728;2023-03-19T16:22:41;9.53;;;3.00;;
71413;SDS011;59226;53.212;5.728;2023-03-19T16:25:16;16.20;;;5.13;;
71413;SDS011;59226;53.212;5.728;2023-03-19T16:27:45;9.73;;;2.95;;
71413;SDS011;59226;53.212;5.728;2023-03-19T16:32:36;8.60;;;2.88;;
71413;SDS011;59226;53.212;5.728;2023-03-19T16:35:03;6.20;;;2.03;;
71413;SDS011;59226;53.212;5.728;2023-03-19T16:37:33;8.93;;;2.42;;
71413;SDS011;59226;53.212;5.728;2023-03-19T16:42:36;7.20;;;2.20;;